Time;durP1;ratioP1;P1;durP2;ratioP2;P2;SDS_P1;SDS_P2;PMS_P1;PMS_P2;Temp;Humidity;BMP_temperature;BMP_pressure;BME280_temperature;BME280_humidity;BME280_pressure;Samples;Min_cycle;Max_cycle;Signal;HPM_P1;HPM_P2
2022/05/06 00:00:24;;;;;;;35.20;22.60;;;;;;;10.86;71.16;99058.84;432541;1272;107581;-44
2022/05/06 00:10:45;;;;;;;30.40;22.00;;;;;;;10.67;71.14;99052.86;432538;1273;99299;-44
2022/05/06 00:20:53;;;;;;;28.10;22.60;;;;;;;10.66;71.49;99051.98;432457;1272;112355;-44
2022/05/06 00:41:07;;;;;;;33.20;21.00;;;;;;;10.61;71.81;99048.69;432409;1273;99266;-40
2022/05/06 00:51:15;;;;;;;33.00;23.40;;;;;;;10.54;72.08;99050.55;432397;1273;108900;-44
2022/05/06 01:01:22;;;;;;;34.00;24.30;;;;;;;10.41;72.02;99051.27;432597;1272;99253;-45
2022/05/06 01:11:30;;;;;;;44.10;27.80;;;;;;;10.39;72.47;99037.38;432253;1273;112345;-45
2022/05/06 01:21:39;;;;;;;46.80;29.20;;;;;;;10.52;72.82;99041.02;432273;1273;109226;-45
2022/05/06 01:31:46;;;;;;;39.90;27.40;;;;;;;10.48;72.64;99039.96;432302;1272;99263;-42
2022/05/06 01:41:56;;;;;;;48.60;29.90;;;;;;;10.31;72.62;99040.81;433139;1262;108793;-45
2022/05/06 01:52:07;;;;;;;48.90;31.50;;;;;;;10.30;72.93;99047.73;432380;1271;99302;-43
2022/05/06 02:02:14;;;;;;;45.60;30.50;;;;;;;10.26;72.95;99060.34;432533;1271;112955;-43
2022/05/06 02:12:22;;;;;;;44.40;28.70;;;;;;;10.18;73.06;99068.63;432562;1271;108333;-43
2022/05/06 02:22:29;;;;;;;41.30;28.10;;;;;;;10.02;72.97;99070.21;432556;1271;98090;-43
2022/05/06 02:43:01;;;;;;;44.90;28.40;;;;;;;9.80;73.45;99065.41;432256;1271;99269;-44
2022/05/06 02:53:06;;;;;;;50.10;28.50;;;;;;;9.66;73.31;99067.02;432428;1271;112024;-43
2022/05/06 03:03:13;;;;;;;31.80;20.00;;;;;;;9.44;73.49;99073.88;432425;1271;108649;-43
2022/05/06 03:13:20;;;;;;;26.40;17.10;;;;;;;9.34;73.73;99083.55;432287;1271;99285;-45
2022/05/06 03:23:27;;;;;;;23.40;15.10;;;;;;;9.19;74.01;99094.23;432230;1271;109305;-44
2022/05/06 03:33:35;;;;;;;21.60;14.40;;;;;;;9.22;74.31;99095.54;432570;1270;99306;-41
2022/05/06 03:43:43;;;;;;;19.50;14.20;;;;;;;9.34;74.36;99107.39;432422;1269;112578;-42
2022/05/06 03:53:50;;;;;;;16.50;12.70;;;;;;;9.48;74.45;99116.02;432383;1271;108829;-44
2022/05/06 04:03:58;;;;;;;38.00;22.00;;;;;;;9.63;74.57;99120.77;432350;1271;99149;-44
2022/05/06 04:14:05;;;;;;;25.40;17.80;;;;;;;9.74;74.52;99137.57;432497;1271;109474;-44
2022/05/06 04:24:12;;;;;;;29.30;18.00;;;;;;;9.88;74.74;99146.46;432470;1271;99373;-43
2022/05/06 04:34:19;;;;;;;25.70;17.40;;;;;;;10.11;74.86;99143.04;432497;1273;112941;-46
2022/05/06 05:04:39;;;;;;;33.00;22.50;;;;;;;11.04;74.94;99169.40;432456;1271;108215;-45
2022/05/06 05:14:47;;;;;;;32.00;23.10;;;;;;;11.19;75.05;99178.63;432455;1271;99286;-44
2022/05/06 05:24:54;;;;;;;39.00;25.30;;;;;;;11.31;75.22;99181.78;432409;1271;112490;-40
2022/05/06 05:35:03;;;;;;;37.70;28.00;;;;;;;11.55;75.58;99189.41;432298;1271;108811;-45
2022/05/06 05:55:36;;;;;;;30.40;23.80;;;;;;;12.00;75.17;99208.42;432325;1271;108856;-40
2022/05/06 06:05:42;;;;;;;33.50;25.00;;;;;;;12.12;75.23;99220.02;432499;1271;97991;-46
2022/05/06 06:25:55;;;;;;;39.10;29.70;;;;;;;12.26;75.17;99212.04;432499;1271;108345;-41
2022/05/06 06:36:02;;;;;;;52.20;36.50;;;;;;;12.62;75.31;99211.94;432576;1271;99284;-44
2022/05/06 06:46:12;;;;;;;52.60;40.00;;;;;;;12.88;75.35;99223.27;432464;1271;108709;-46
2022/05/06 06:56:20;;;;;;;62.80;42.00;;;;;;;12.95;75.75;99222.83;432453;1271;99299;-41
2022/05/06 07:16:58;;;;;;;65.40;44.40;;;;;;;13.05;76.72;99228.58;431658;1273;108969;-42
2022/05/06 07:27:06;;;;;;;69.70;43.60;;;;;;;13.42;76.71;99234.64;432380;1271;99369;-42
2022/05/06 07:37:12;;;;;;;69.30;41.60;;;;;;;13.76;76.63;99232.63;432450;1271;107370;-47
2022/05/06 07:47:19;;;;;;;65.90;41.50;;;;;;;13.90;76.53;99241.67;432423;1271;99293;-44
2022/05/06 07:57:27;;;;;;;;;;;;;;;14.07;76.39;99246.33;432482;1271;112480;-42
2022/05/06 08:07:34;;;;;;;59.20;41.80;;;;;;;14.20;76.26;99249.38;432528;1271;108835;-44
2022/05/06 08:17:41;;;;;;;68.30;45.20;;;;;;;14.18;76.40;99250.52;432517;1271;99250;-43
2022/05/06 08:27:49;;;;;;;62.40;40.10;;;;;;;14.44;76.28;99246.70;432453;1271;108728;-43
2022/05/06 08:37:57;;;;;;;63.70;41.60;;;;;;;14.66;76.18;99249.52;432359;1269;99302;-43
2022/05/06 08:58:34;;;;;;;55.80;39.90;;;;;;;15.16;75.83;99256.51;432322;1272;108860;-42
2022/05/06 09:08:45;;;;;;;59.30;41.60;;;;;;;15.45;75.41;99266.84;432513;1271;98311;-41
2022/05/06 09:18:52;;;;;;;60.80;41.20;;;;;;;15.78;75.09;99275.06;432518;1270;109147;-45
2022/05/06 09:28:59;;;;;;;50.70;36.40;;;;;;;16.25;74.38;99283.30;432483;1270;99282;-43
2022/05/06 09:39:04;;;;;;;44.00;34.90;;;;;;;16.59;73.85;99276.77;432390;1271;112403;-41
2022/05/06 09:59:38;;;;;;;48.20;33.90;;;;;;;17.32;72.27;99272.73;432358;1273;98066;-40
2022/05/06 10:09:47;;;;;;;49.30;36.50;;;;;;;17.43;71.35;99273.27;432453;1273;109172;-43
2022/05/06 10:50:40;;;;;;;30.30;24.20;;;;;;;18.13;67.14;99277.32;432259;1272;98762;-46
2022/05/06 11:00:47;;;;;;;26.40;21.70;;;;;;;18.47;66.34;99279.13;432526;1271;108294;-42
2022/05/06 11:10:55;;;;;;;29.90;22.50;;;;;;;18.56;65.46;99269.66;432358;1273;99292;-46
2022/05/06 11:31:28;;;;;;;27.20;22.50;;;;;;;18.58;63.86;99265.75;432633;1271;109289;-46
2022/05/06 11:41:36;;;;;;;31.30;23.00;;;;;;;18.90;63.57;99259.67;432584;1271;99267;-46
2022/05/06 11:51:46;;;;;;;24.60;19.60;;;;;;;19.28;63.04;99252.23;432632;1271;108849;-44
2022/05/06 12:01:53;;;;;;;25.20;19.90;;;;;;;19.43;61.64;99252.11;432487;1271;99289;-42
2022/05/06 12:12:04;;;;;;;18.70;15.50;;;;;;;19.13;60.07;99254.08;432651;1270;112381;-41
2022/05/06 12:22:10;;;;;;;16.70;14.70;;;;;;;19.02;59.50;99250.57;432404;1271;109071;-40
2022/05/06 12:32:18;;;;;;;23.70;14.00;;;;;;;19.05;58.77;99240.70;432626;1271;99684;-46
2022/05/06 12:42:25;;;;;;;21.50;16.70;;;;;;;19.08;57.28;99235.17;432326;1271;106955;-41
2022/05/06 12:52:52;;;;;;;19.40;15.40;;;;;;;19.09;57.27;99226.05;432453;1271;98855;-45
2022/05/06 13:03:00;;;;;;;14.30;10.50;;;;;;;19.21;56.45;99219.55;432706;1271;112650;-45
2022/05/06 13:13:07;;;;;;;12.10;10.30;;;;;;;19.19;54.95;99213.02;432603;1271;108784;-45
2022/05/06 13:23:14;;;;;;;12.80;9.20;;;;;;;19.07;54.08;99209.92;432459;1271;98965;-45
2022/05/06 13:33:21;;;;;;;14.90;8.80;;;;;;;18.86;53.49;99211.14;432641;1271;108666;-41
2022/05/06 13:43:27;;;;;;;11.70;7.60;;;;;;;18.60;52.87;99219.58;432407;1271;99261;-46
2022/05/06 14:13:46;;;;;;;13.60;7.50;;;;;;;18.77;51.87;99203.90;432570;1271;99254;-46
2022/05/06 14:23:54;;;;;;;12.80;6.40;;;;;;;18.73;52.18;99198.45;432500;1271;108891;-43
2022/05/06 14:34:01;;;;;;;9.50;4.50;;;;;;;18.55;51.68;99192.10;432532;1271;98966;-41
2022/05/06 14:44:09;;;;;;;11.10;5.40;;;;;;;18.36;51.49;99195.23;432459;1271;112544;-44
2022/05/06 14:54:16;;;;;;;5.80;4.10;;;;;;;18.10;50.17;99192.52;432622;1271;107567;-44
2022/05/06 15:04:23;;;;;;;10.30;4.60;;;;;;;17.82;49.70;99196.05;432542;1271;99366;-45
2022/05/06 15:14:31;;;;;;;9.20;5.20;;;;;;;17.79;49.96;99189.03;432586;1271;108922;-45
2022/05/06 15:24:37;;;;;;;9.20;4.50;;;;;;;17.74;49.31;99174.52;432438;1271;99248;-46
2022/05/06 15:34:45;;;;;;;10.40;4.20;;;;;;;17.71;49.64;99169.95;432599;1271;112479;-42
2022/05/06 15:44:52;;;;;;;7.10;4.00;;;;;;;17.56;49.23;99162.44;432323;1271;107907;-42
2022/05/06 15:55:00;;;;;;;6.80;4.20;;;;;;;17.52;49.63;99158.75;432615;1271;98047;-44
2022/05/06 16:05:08;;;;;;;9.90;5.20;;;;;;;17.50;49.90;99157.71;432564;1271;108130;-44
2022/05/06 16:25:29;;;;;;;6.10;4.80;;;;;;;17.33;50.56;99159.41;432710;1271;112532;-45
2022/05/06 16:46:01;;;;;;;6.70;4.60;;;;;;;17.20;51.36;99167.46;432622;1271;98048;-44
2022/05/06 16:56:08;;;;;;;12.90;6.00;;;;;;;17.19;51.62;99165.64;432520;1271;108567;-41
2022/05/06 17:06:16;;;;;;;8.90;5.50;;;;;;;17.12;52.09;99160.96;432496;1273;98075;-45
2022/05/06 17:16:23;;;;;;;20.40;13.20;;;;;;;17.02;52.42;99162.66;432561;1271;112682;-46
2022/05/06 17:26:29;;;;;;;31.00;18.80;;;;;;;16.98;52.86;99158.52;432540;1271;108826;-42
2022/05/06 17:56:48;;;;;;;29.00;16.80;;;;;;;16.28;53.89;99174.63;432519;1271;98420;-42
2022/05/06 18:17:02;;;;;;;35.30;18.90;;;;;;;15.54;54.90;99186.85;432223;1271;467899;-44
2022/05/06 18:27:09;;;;;;;29.40;13.60;;;;;;;15.17;55.79;99197.76;432586;1273;99255;-43
2022/05/06 18:37:16;;;;;;;60.70;16.90;;;;;;;14.75;56.37;99203.52;432535;1271;107781;-44
2022/05/06 18:47:23;;;;;;;31.90;16.10;;;;;;;14.40;56.92;99207.20;432406;1271;99308;-44
2022/05/06 18:57:31;;;;;;;32.70;17.30;;;;;;;14.19;57.47;99223.14;432488;1271;112039;-42
2022/05/06 19:07:38;;;;;;;39.80;21.10;;;;;;;13.85;58.09;99237.92;432529;1271;108712;-41
2022/05/06 19:17:56;;;;;;;33.70;20.00;;;;;;;13.40;58.72;99243.79;432653;1271;99143;-41
2022/05/06 19:28:03;;;;;;;36.80;20.80;;;;;;;13.04;59.28;99245.66;432681;1271;108846;-44
2022/05/06 19:38:11;;;;;;;46.80;26.70;;;;;;;12.76;59.98;99248.70;432513;1271;98473;-43
2022/05/06 19:48:17;;;;;;;51.70;29.00;;;;;;;12.56;60.30;99245.34;432484;1271;112022;-44
2022/05/06 19:58:24;;;;;;;40.50;25.30;;;;;;;12.30;60.88;99254.31;432626;1271;109115;-44
2022/05/06 20:08:30;;;;;;;30.70;20.80;;;;;;;12.12;61.51;99255.63;432391;1271;99301;-43
2022/05/06 20:18:38;;;;;;;29.60;17.60;;;;;;;11.84;61.91;99251.08;432593;1270;108777;-42
2022/05/06 20:28:46;;;;;;;28.10;16.90;;;;;;;11.59;62.48;99253.17;432445;1271;99317;-46
2022/05/06 20:38:54;;;;;;;25.10;16.10;;;;;;;11.41;62.81;99252.84;432430;1271;112299;-44
2022/05/06 20:49:01;;;;;;;24.40;15.50;;;;;;;11.26;63.11;99249.08;432450;1271;108454;-43
2022/05/06 21:19:57;;;;;;;24.40;16.70;;;;;;;10.71;64.24;99252.98;432646;1273;98837;-45
2022/05/06 21:30:06;;;;;;;20.90;13.50;;;;;;;10.24;64.50;99250.14;432413;1271;112597;-41
2022/05/06 21:40:14;;;;;;;20.70;12.90;;;;;;;10.00;64.81;99248.59;432428;1271;108817;-44
2022/05/06 21:50:22;;;;;;;19.50;11.20;;;;;;;9.95;65.34;99245.08;432500;1271;99455;-42
2022/05/06 22:00:33;;;;;;;21.70;13.80;;;;;;;9.81;65.32;99241.55;432529;1271;109193;-46
2022/05/06 22:10:40;;;;;;;21.50;14.60;;;;;;;9.47;65.39;99240.93;432661;1271;99289;-42
2022/05/06 22:20:48;;;;;;;17.80;10.00;;;;;;;9.21;65.81;99237.09;432391;1271;112477;-44
2022/05/06 22:30:55;;;;;;;18.40;8.90;;;;;;;9.14;66.04;99237.55;432640;1271;108782;-44
2022/05/06 22:46:00;;;;;;;12.40;8.10;;;;;;;9.06;66.10;99238.70;432487;1271;98091;-41
2022/05/06 22:51:30;;;;;;;16.70;7.90;;;;;;;9.06;66.20;99237.61;432371;1271;111948;-45
2022/05/06 23:01:37;;;;;;;13.00;7.40;;;;;;;8.99;66.23;99232.02;432410;1273;98664;-43
2022/05/06 23:11:45;;;;;;;16.50;9.30;;;;;;;8.87;66.41;99223.77;432591;1271;112439;-42
2022/05/06 23:31:58;;;;;;;11.40;8.40;;;;;;;8.54;66.50;99206.90;432426;1270;99283;-45
2022/05/06 23:42:06;;;;;;;21.10;11.50;;;;;;;8.47;66.87;99210.30;432460;1271;107220;-44
2022/05/06 23:52:13;;;;;;;24.30;14.10;;;;;;;8.37;67.16;99210.38;432602;1271;99260;-42
